Airfield :
LOGIN :

Register | Disclaimer

   EN    FR    IT 

 










Legend :    VFR   Marginal VFR   IFR   Intensive IFR   Very Intensive IFR
Visi :
Ceiling :
>= 8 km
>= 3000ft
5 to 8 km
1000 to 3000 ft
1500m to 5 km
500 to 1000 ft
800 to 1500m
200 to 500 ft
< 800m
< 200 ft
Symbols :   Thunderstorms  Fog  Heavy snow  Heavy precipitations  Wind > 20 kt
SIGMETs :     Misc.  Thunderstorms  Icing  Turbulence  Mountain Waves  Volcanic Ashes






- Airport Elevation : 15 ft
- IATA code : FCO


LIRF - Roma Leonardo da Vinci Fiumicino

CURRENT METAR :
  • 170320Z 15006KT CAVOK 16/14 Q1008 NOSIG

EXPIRED METARs :
  • 170250Z 13009KT CAVOK 17/14 Q1008 NOSIG
  • 170220Z 13010KT 9999 FEW020 16/14 Q1008 NOSIG
  • 170150Z 13011KT 9999 FEW020 SCT025 17/14 Q1008 NOSIG
  • 170120Z 14009KT 9999 SCT018 17/15 Q1008 NOSIG

TAF TAF LIRF
Valid from the 17 at 00:00 until the 18 at 06:00 UTC


162300Z 1700/1806 16008KT 9999 SCT030
BECMG 1708/1710 26014KT
BECMG 1718/1720 32012KT



MET'MAP, your aeronautical weather chart ! - Copyright ORBIFLY December 2007 - Disclaimer

ORBIFLY MET'MAP TEAM :

Programming & Development : Alexandra Zaïnal
Concept & original design : Baudouin d'Aumeries
Assistance for programming : Marc-Olivier Méhu
Technical & hardware support : Manuel Goepfert

Contact : metmap@orbifly.com




SOURCES & CREDITS :

   NOAA